sensor_id;sensor_type;location;lat;lon;timestamp;temperature;humidity
15143;DHT22;7672;50.834;6.286;2023-02-01T00:00:56;8.00;99.90
15143;DHT22;7672;50.834;6.286;2023-02-01T00:03:23;8.00;99.90
15143;DHT22;7672;50.834;6.286;2023-02-01T00:05:58;7.90;99.90
15143;DHT22;7672;50.834;6.286;2023-02-01T00:08:26;7.90;99.90
15143;DHT22;7672;50.834;6.286;2023-02-01T00:11:07;7.70;99.90
15143;DHT22;7672;50.834;6.286;2023-02-01T00:13:37;7.80;99.90
15143;DHT22;7672;50.834;6.286;2023-02-01T00:16:14;7.80;99.90
15143;DHT22;7672;50.834;6.286;2023-02-01T00:18:47;7.80;99.90
15143;DHT22;7672;50.834;6.286;2023-02-01T00:21:18;7.80;99.90
15143;DHT22;7672;50.834;6.286;2023-02-01T00:23:46;7.80;99.90
15143;DHT22;7672;50.834;6.286;2023-02-01T00:26:30;7.80;99.90
15143;DHT22;7672;50.834;6.286;2023-02-01T00:28:57;7.80;99.90
15143;DHT22;7672;50.834;6.286;2023-02-01T00:31:24;7.80;99.90
15143;DHT22;7672;50.834;6.286;2023-02-01T00:33:54;7.80;99.90
15143;DHT22;7672;50.834;6.286;2023-02-01T00:36:21;7.80;99.90
15143;DHT22;7672;50.834;6.286;2023-02-01T00:38:48;7.80;99.90
15143;DHT22;7672;50.834;6.286;2023-02-01T00:41:18;7.80;99.90
15143;DHT22;7672;50.834;6.286;2023-02-01T00:43:47;7.80;99.90
15143;DHT22;7672;50.834;6.286;2023-02-01T00:46:16;7.90;99.90
15143;DHT22;7672;50.834;6.286;2023-02-01T00:48:44;8.00;99.90
15143;DHT22;7672;50.834;6.286;2023-02-01T00:51:13;7.90;99.90
15143;DHT22;7672;50.834;6.286;2023-02-01T00:53:43;7.90;99.90
15143;DHT22;7672;50.834;6.286;2023-02-01T00:56:10;7.80;99.90
15143;DHT22;7672;50.834;6.286;2023-02-01T00:58:38;8.00;99.90
15143;DHT22;7672;50.834;6.286;2023-02-01T01:03:44;8.00;99.90
15143;DHT22;7672;50.834;6.286;2023-02-01T01:06:18;8.00;99.90
15143;DHT22;7672;50.834;6.286;2023-02-01T01:08:47;8.10;99.90
15143;DHT22;7672;50.834;6.286;2023-02-01T01:11:19;8.10;99.90
15143;DHT22;7672;50.834;6.286;2023-02-01T01:13:49;8.10;99.90
15143;DHT22;7672;50.834;6.286;2023-02-01T01:16:17;8.20;99.90
15143;DHT22;7672;50.834;6.286;2023-02-01T01:18:45;8.20;99.90
15143;DHT22;7672;50.834;6.286;2023-02-01T01:21:14;8.20;99.90
15143;DHT22;7672;50.834;6.286;2023-02-01T01:23:43;8.20;99.90
15143;DHT22;7672;50.834;6.286;2023-02-01T01:26:14;8.20;99.90
15143;DHT22;7672;50.834;6.286;2023-02-01T01:28:44;8.20;99.90
15143;DHT22;7672;50.834;6.286;2023-02-01T01:31:13;8.20;99.90
15143;DHT22;7672;50.834;6.286;2023-02-01T01:33:41;8.20;99.90
15143;DHT22;7672;50.834;6.286;2023-02-01T01:36:11;8.30;99.90
15143;DHT22;7672;50.834;6.286;2023-02-01T01:38:39;7.90;99.90
15143;DHT22;7672;50.834;6.286;2023-02-01T01:41:07;8.30;99.90
15143;DHT22;7672;50.834;6.286;2023-02-01T01:43:53;8.30;99.90
15143;DHT22;7672;50.834;6.286;2023-02-01T01:46:26;8.30;99.90
15143;DHT22;7672;50.834;6.286;2023-02-01T01:49:16;8.30;99.90
15143;DHT22;7672;50.834;6.286;2023-02-01T01:51:53;8.30;99.90
15143;DHT22;7672;50.834;6.286;2023-02-01T01:54:31;8.30;99.90
15143;DHT22;7672;50.834;6.286;2023-02-01T01:57:06;8.30;99.90
15143;DHT22;7672;50.834;6.286;2023-02-01T01:59:38;8.30;99.90
15143;DHT22;7672;50.834;6.286;2023-02-01T02:02:07;8.40;99.90
15143;DHT22;7672;50.834;6.286;2023-02-01T02:04:35;8.30;99.90
15143;DHT22;7672;50.834;6.286;2023-02-01T02:07:05;8.40;99.90
15143;DHT22;7672;50.834;6.286;2023-02-01T02:09:36;8.10;99.90
15143;DHT22;7672;50.834;6.286;2023-02-01T02:12:05;8.30;99.90
15143;DHT22;7672;50.834;6.286;2023-02-01T02:14:33;8.30;99.90
15143;DHT22;7672;50.834;6.286;2023-02-01T02:17:42;8.40;99.90
15143;DHT22;7672;50.834;6.286;2023-02-01T02:23:50;8.30;99.90
15143;DHT22;7672;50.834;6.286;2023-02-01T02:26:23;8.30;99.90
15143;DHT22;7672;50.834;6.286;2023-02-01T02:32:13;8.30;99.90
15143;DHT22;7672;50.834;6.286;2023-02-01T02:35:30;8.40;99.90
15143;DHT22;7672;50.834;6.286;2023-02-01T02:41:10;8.40;99.90
15143;DHT22;7672;50.834;6.286;2023-02-01T02:43:49;8.40;99.90
15143;DHT22;7672;50.834;6.286;2023-02-01T02:46:48;8.40;99.90
15143;DHT22;7672;50.834;6.286;2023-02-01T02:53:32;8.40;99.90
15143;DHT22;7672;50.834;6.286;2023-02-01T02:56:21;8.40;99.90
15143;DHT22;7672;50.834;6.286;2023-02-01T02:59:12;8.40;99.90
15143;DHT22;7672;50.834;6.286;2023-02-01T03:02:00;8.40;99.90
15143;DHT22;7672;50.834;6.286;2023-02-01T03:04:45;8.40;99.90
15143;DHT22;7672;50.834;6.286;2023-02-01T03:07:13;8.40;99.90
15143;DHT22;7672;50.834;6.286;2023-02-01T03:10:04;8.40;99.90
15143;DHT22;7672;50.834;6.286;2023-02-01T03:12:36;8.40;99.90
15143;DHT22;7672;50.834;6.286;2023-02-01T03:15:43;8.40;99.90
15143;DHT22;7672;50.834;6.286;2023-02-01T03:18:25;8.40;99.90
15143;DHT22;7672;50.834;6.286;2023-02-01T03:20:53;8.40;99.90
15143;DHT22;7672;50.834;6.286;2023-02-01T03:23:25;8.40;99.90
15143;DHT22;7672;50.834;6.286;2023-02-01T03:25:56;8.40;99.90
15143;DHT22;7672;50.834;6.286;2023-02-01T03:28:28;8.40;99.90
15143;DHT22;7672;50.834;6.286;2023-02-01T03:30:58;8.50;99.90
15143;DHT22;7672;50.834;6.286;2023-02-01T03:33:27;8.40;99.90
15143;DHT22;7672;50.834;6.286;2023-02-01T03:39:03;8.40;99.90
15143;DHT22;7672;50.834;6.286;2023-02-01T03:41:41;8.50;99.90
15143;DHT22;7672;50.834;6.286;2023-02-01T03:44:24;8.50;99.90
15143;DHT22;7672;50.834;6.286;2023-02-01T03:46:59;8.40;99.90
15143;DHT22;7672;50.834;6.286;2023-02-01T03:49:54;8.40;99.90
15143;DHT22;7672;50.834;6.286;2023-02-01T03:55:13;8.40;99.90
15143;DHT22;7672;50.834;6.286;2023-02-01T03:57:55;8.30;99.90
15143;DHT22;7672;50.834;6.286;2023-02-01T04:00:27;8.30;99.90
15143;DHT22;7672;50.834;6.286;2023-02-01T04:02:54;8.30;99.90
15143;DHT22;7672;50.834;6.286;2023-02-01T04:05:22;8.30;99.90
15143;DHT22;7672;50.834;6.286;2023-02-01T04:07:49;8.20;99.90
15143;DHT22;7672;50.834;6.286;2023-02-01T04:10:16;8.20;99.90
15143;DHT22;7672;50.834;6.286;2023-02-01T04:12:45;8.20;99.90
15143;DHT22;7672;50.834;6.286;2023-02-01T04:15:12;8.10;99.90
15143;DHT22;7672;50.834;6.286;2023-02-01T04:17:39;8.10;99.90
15143;DHT22;7672;50.834;6.286;2023-02-01T04:20:05;8.00;99.90
15143;DHT22;7672;50.834;6.286;2023-02-01T04:22:33;8.00;99.90
15143;DHT22;7672;50.834;6.286;2023-02-01T04:24:59;8.00;99.90
15143;DHT22;7672;50.834;6.286;2023-02-01T04:27:26;8.00;99.90
15143;DHT22;7672;50.834;6.286;2023-02-01T04:29:53;7.90;99.90
15143;DHT22;7672;50.834;6.286;2023-02-01T04:32:23;7.90;99.90
15143;DHT22;7672;50.834;6.286;2023-02-01T04:34:50;7.80;99.90
15143;DHT22;7672;50.834;6.286;2023-02-01T04:37:17;7.80;99.90
15143;DHT22;7672;50.834;6.286;2023-02-01T04:39:44;7.70;99.90
15143;DHT22;7672;50.834;6.286;2023-02-01T04:42:11;7.70;99.90
15143;DHT22;7672;50.834;6.286;2023-02-01T04:44:38;7.70;99.90
15143;DHT22;7672;50.834;6.286;2023-02-01T04:47:08;7.60;99.90
15143;DHT22;7672;50.834;6.286;2023-02-01T04:49:35;7.90;99.90
15143;DHT22;7672;50.834;6.286;2023-02-01T04:52:02;7.60;99.90
15143;DHT22;7672;50.834;6.286;2023-02-01T04:54:29;7.60;99.90
15143;DHT22;7672;50.834;6.286;2023-02-01T04:56:56;7.50;99.90
15143;DHT22;7672;50.834;6.286;2023-02-01T04:59:23;7.60;99.90
15143;DHT22;7672;50.834;6.286;2023-02-01T05:01:50;7.50;99.90
15143;DHT22;7672;50.834;6.286;2023-02-01T05:04:16;7.60;99.90
15143;DHT22;7672;50.834;6.286;2023-02-01T05:06:45;7.50;99.90
15143;DHT22;7672;50.834;6.286;2023-02-01T05:09:12;7.50;99.90
15143;DHT22;7672;50.834;6.286;2023-02-01T05:11:39;7.50;99.90
15143;DHT22;7672;50.834;6.286;2023-02-01T05:14:24;7.50;99.90
15143;DHT22;7672;50.834;6.286;2023-02-01T05:16:51;7.50;99.90
15143;DHT22;7672;50.834;6.286;2023-02-01T05:19:18;7.50;99.90
15143;DHT22;7672;50.834;6.286;2023-02-01T05:21:44;7.50;99.90
15143;DHT22;7672;50.834;6.286;2023-02-01T05:24:11;7.50;99.90
15143;DHT22;7672;50.834;6.286;2023-02-01T05:26:47;7.40;99.90
15143;DHT22;7672;50.834;6.286;2023-02-01T05:29:15;7.50;99.90
15143;DHT22;7672;50.834;6.286;2023-02-01T05:31:46;7.40;99.90
15143;DHT22;7672;50.834;6.286;2023-02-01T05:34:15;7.40;99.90
15143;DHT22;7672;50.834;6.286;2023-02-01T05:36:42;7.40;99.90
15143;DHT22;7672;50.834;6.286;2023-02-01T05:39:09;7.40;99.90
15143;DHT22;7672;50.834;6.286;2023-02-01T05:41:36;7.40;99.90
15143;DHT22;7672;50.834;6.286;2023-02-01T05:44:03;7.40;99.90
15143;DHT22;7672;50.834;6.286;2023-02-01T05:46:30;7.40;99.90
15143;DHT22;7672;50.834;6.286;2023-02-01T05:48:57;7.30;99.90
15143;DHT22;7672;50.834;6.286;2023-02-01T05:51:24;7.30;99.90
15143;DHT22;7672;50.834;6.286;2023-02-01T05:53:51;7.30;99.90
15143;DHT22;7672;50.834;6.286;2023-02-01T05:56:18;7.30;99.90
15143;DHT22;7672;50.834;6.286;2023-02-01T05:58:44;7.30;99.90
15143;DHT22;7672;50.834;6.286;2023-02-01T06:01:11;7.30;99.90
15143;DHT22;7672;50.834;6.286;2023-02-01T06:03:38;7.30;99.90
15143;DHT22;7672;50.834;6.286;2023-02-01T06:06:05;7.10;99.90
15143;DHT22;7672;50.834;6.286;2023-02-01T06:08:32;7.30;99.90
15143;DHT22;7672;50.834;6.286;2023-02-01T06:11:00;7.20;99.90
15143;DHT22;7672;50.834;6.286;2023-02-01T06:13:32;7.20;99.90
15143;DHT22;7672;50.834;6.286;2023-02-01T06:16:01;7.20;99.90
15143;DHT22;7672;50.834;6.286;2023-02-01T06:18:29;7.20;99.90
15143;DHT22;7672;50.834;6.286;2023-02-01T06:20:58;7.20;99.90
15143;DHT22;7672;50.834;6.286;2023-02-01T06:23:30;7.20;99.90
15143;DHT22;7672;50.834;6.286;2023-02-01T06:26:02;7.20;99.90
15143;DHT22;7672;50.834;6.286;2023-02-01T06:28:31;7.20;99.90
15143;DHT22;7672;50.834;6.286;2023-02-01T06:31:06;7.10;99.90
15143;DHT22;7672;50.834;6.286;2023-02-01T06:33:34;7.10;99.90
15143;DHT22;7672;50.834;6.286;2023-02-01T06:36:04;7.10;99.90
15143;DHT22;7672;50.834;6.286;2023-02-01T06:38:33;7.10;99.90
15143;DHT22;7672;50.834;6.286;2023-02-01T06:41:01;7.10;99.90
15143;DHT22;7672;50.834;6.286;2023-02-01T06:43:30;7.00;99.90
15143;DHT22;7672;50.834;6.286;2023-02-01T06:46:00;7.00;99.90
15143;DHT22;7672;50.834;6.286;2023-02-01T06:48:29;7.00;99.90
15143;DHT22;7672;50.834;6.286;2023-02-01T06:50:56;7.00;99.90
15143;DHT22;7672;50.834;6.286;2023-02-01T06:53:23;7.00;99.90
15143;DHT22;7672;50.834;6.286;2023-02-01T06:56:01;6.90;99.90
15143;DHT22;7672;50.834;6.286;2023-02-01T06:58:33;6.90;99.90
15143;DHT22;7672;50.834;6.286;2023-02-01T07:01:10;6.90;99.90
15143;DHT22;7672;50.834;6.286;2023-02-01T07:03:37;6.90;99.90
15143;DHT22;7672;50.834;6.286;2023-02-01T07:06:05;6.90;99.90
15143;DHT22;7672;50.834;6.286;2023-02-01T07:08:35;6.90;99.90
15143;DHT22;7672;50.834;6.286;2023-02-01T07:11:08;6.90;99.90
15143;DHT22;7672;50.834;6.286;2023-02-01T07:13:36;6.90;99.90
15143;DHT22;7672;50.834;6.286;2023-02-01T07:16:06;6.90;99.90
15143;DHT22;7672;50.834;6.286;2023-02-01T07:18:35;6.90;99.90
15143;DHT22;7672;50.834;6.286;2023-02-01T07:21:02;6.90;99.90
15143;DHT22;7672;50.834;6.286;2023-02-01T07:23:29;6.90;99.90
15143;DHT22;7672;50.834;6.286;2023-02-01T07:25:58;6.90;99.90
15143;DHT22;7672;50.834;6.286;2023-02-01T07:28:29;6.90;99.90
15143;DHT22;7672;50.834;6.286;2023-02-01T07:31:08;6.90;99.90
15143;DHT22;7672;50.834;6.286;2023-02-01T07:33:37;6.90;99.90
15143;DHT22;7672;50.834;6.286;2023-02-01T07:36:07;6.90;99.90
15143;DHT22;7672;50.834;6.286;2023-02-01T07:38:37;7.00;99.90
15143;DHT22;7672;50.834;6.286;2023-02-01T07:41:05;7.00;99.90
15143;DHT22;7672;50.834;6.286;2023-02-01T07:43:33;7.00;99.90
15143;DHT22;7672;50.834;6.286;2023-02-01T07:46:01;7.10;99.90
15143;DHT22;7672;50.834;6.286;2023-02-01T07:48:30;7.20;99.90
15143;DHT22;7672;50.834;6.286;2023-02-01T07:53:29;7.30;99.90
15143;DHT22;7672;50.834;6.286;2023-02-01T07:55:57;7.40;99.90
15143;DHT22;7672;50.834;6.286;2023-02-01T07:58:25;7.60;99.90
15143;DHT22;7672;50.834;6.286;2023-02-01T08:00:53;7.60;99.90
15143;DHT22;7672;50.834;6.286;2023-02-01T08:03:39;7.70;99.90
15143;DHT22;7672;50.834;6.286;2023-02-01T08:06:06;7.80;99.90
15143;DHT22;7672;50.834;6.286;2023-02-01T08:08:33;7.90;99.90
15143;DHT22;7672;50.834;6.286;2023-02-01T08:11:02;7.90;99.90
15143;DHT22;7672;50.834;6.286;2023-02-01T08:13:31;7.90;99.90
15143;DHT22;7672;50.834;6.286;2023-02-01T08:16:00;7.90;99.90
15143;DHT22;7672;50.834;6.286;2023-02-01T08:18:32;8.00;99.90
15143;DHT22;7672;50.834;6.286;2023-02-01T08:21:13;8.00;99.90
15143;DHT22;7672;50.834;6.286;2023-02-01T08:23:42;8.00;99.90
15143;DHT22;7672;50.834;6.286;2023-02-01T08:26:12;8.00;99.90
15143;DHT22;7672;50.834;6.286;2023-02-01T08:28:47;8.10;99.90
15143;DHT22;7672;50.834;6.286;2023-02-01T08:31:20;8.20;99.90
15143;DHT22;7672;50.834;6.286;2023-02-01T08:33:53;8.20;99.90
15143;DHT22;7672;50.834;6.286;2023-02-01T08:36:23;8.20;99.90
15143;DHT22;7672;50.834;6.286;2023-02-01T08:38:51;8.30;99.90
15143;DHT22;7672;50.834;6.286;2023-02-01T08:41:23;8.40;99.90
15143;DHT22;7672;50.834;6.286;2023-02-01T08:43:52;8.60;99.90
15143;DHT22;7672;50.834;6.286;2023-02-01T08:46:21;8.90;99.90
15143;DHT22;7672;50.834;6.286;2023-02-01T08:48:49;9.30;99.90
15143;DHT22;7672;50.834;6.286;2023-02-01T08:51:19;9.70;99.90
15143;DHT22;7672;50.834;6.286;2023-02-01T08:53:47;10.10;99.90
15143;DHT22;7672;50.834;6.286;2023-02-01T08:56:16;10.50;99.90
15143;DHT22;7672;50.834;6.286;2023-02-01T08:58:44;10.80;99.90
15143;DHT22;7672;50.834;6.286;2023-02-01T09:01:13;11.10;99.90
15143;DHT22;7672;50.834;6.286;2023-02-01T09:03:42;11.30;99.90
15143;DHT22;7672;50.834;6.286;2023-02-01T09:06:13;11.40;99.90
15143;DHT22;7672;50.834;6.286;2023-02-01T09:08:42;11.40;99.90
15143;DHT22;7672;50.834;6.286;2023-02-01T09:11:14;11.40;99.90
15143;DHT22;7672;50.834;6.286;2023-02-01T09:13:43;11.40;99.90
15143;DHT22;7672;50.834;6.286;2023-02-01T09:16:10;11.30;99.90
15143;DHT22;7672;50.834;6.286;2023-02-01T09:18:37;11.20;99.90
15143;DHT22;7672;50.834;6.286;2023-02-01T09:21:21;11.10;99.90
15143;DHT22;7672;50.834;6.286;2023-02-01T09:23:50;11.00;99.90
15143;DHT22;7672;50.834;6.286;2023-02-01T09:26:18;11.00;99.90
15143;DHT22;7672;50.834;6.286;2023-02-01T09:28:48;11.00;99.90
15143;DHT22;7672;50.834;6.286;2023-02-01T09:31:15;11.10;99.90
15143;DHT22;7672;50.834;6.286;2023-02-01T09:33:42;11.20;99.90
15143;DHT22;7672;50.834;6.286;2023-02-01T09:36:08;11.40;99.90
15143;DHT22;7672;50.834;6.286;2023-02-01T09:38:35;11.50;99.90
15143;DHT22;7672;50.834;6.286;2023-02-01T09:44:14;11.90;99.90
15143;DHT22;7672;50.834;6.286;2023-02-01T09:46:54;12.10;99.90
15143;DHT22;7672;50.834;6.286;2023-02-01T09:49:28;12.30;99.90
15143;DHT22;7672;50.834;6.286;2023-02-01T09:51:59;12.50;99.90
15143;DHT22;7672;50.834;6.286;2023-02-01T09:54:39;12.70;99.90
15143;DHT22;7672;50.834;6.286;2023-02-01T09:57:44;12.90;99.90
15143;DHT22;7672;50.834;6.286;2023-02-01T10:00:23;13.20;99.90
15143;DHT22;7672;50.834;6.286;2023-02-01T10:02:54;13.30;99.90
15143;DHT22;7672;50.834;6.286;2023-02-01T10:05:50;13.60;99.90
15143;DHT22;7672;50.834;6.286;2023-02-01T10:08:38;13.80;99.90
15143;DHT22;7672;50.834;6.286;2023-02-01T10:11:54;14.00;99.90
15143;DHT22;7672;50.834;6.286;2023-02-01T10:24:17;15.30;99.90
15143;DHT22;7672;50.834;6.286;2023-02-01T10:29:55;16.00;99.90
15143;DHT22;7672;50.834;6.286;2023-02-01T10:32:34;16.20;99.90
15143;DHT22;7672;50.834;6.286;2023-02-01T10:37:44;16.60;99.90
15143;DHT22;7672;50.834;6.286;2023-02-01T10:40:16;16.70;99.90
15143;DHT22;7672;50.834;6.286;2023-02-01T10:42:48;16.80;99.90
15143;DHT22;7672;50.834;6.286;2023-02-01T10:45:19;16.90;99.90
15143;DHT22;7672;50.834;6.286;2023-02-01T10:47:51;16.90;99.90
15143;DHT22;7672;50.834;6.286;2023-02-01T10:50:33;17.00;99.90
15143;DHT22;7672;50.834;6.286;2023-02-01T10:55:57;16.90;99.90
15143;DHT22;7672;50.834;6.286;2023-02-01T10:58:33;16.70;99.90
15143;DHT22;7672;50.834;6.286;2023-02-01T11:01:06;16.70;99.90
15143;DHT22;7672;50.834;6.286;2023-02-01T11:03:56;16.40;99.90
15143;DHT22;7672;50.834;6.286;2023-02-01T11:11:32;16.30;99.90
15143;DHT22;7672;50.834;6.286;2023-02-01T11:14:41;16.50;99.90
15143;DHT22;7672;50.834;6.286;2023-02-01T11:17:26;16.50;99.90
15143;DHT22;7672;50.834;6.286;2023-02-01T11:20:05;16.50;99.90
15143;DHT22;7672;50.834;6.286;2023-02-01T11:22:48;16.50;99.90
15143;DHT22;7672;50.834;6.286;2023-02-01T11:25:21;16.50;99.90
15143;DHT22;7672;50.834;6.286;2023-02-01T11:27:51;16.40;99.90
15143;DHT22;7672;50.834;6.286;2023-02-01T11:33:05;16.10;99.90
15143;DHT22;7672;50.834;6.286;2023-02-01T11:35:40;16.00;99.90
15143;DHT22;7672;50.834;6.286;2023-02-01T11:38:23;15.80;99.90
15143;DHT22;7672;50.834;6.286;2023-02-01T11:40:54;15.60;99.90
15143;DHT22;7672;50.834;6.286;2023-02-01T11:43:28;15.50;99.90
15143;DHT22;7672;50.834;6.286;2023-02-01T11:46:00;15.30;99.90
15143;DHT22;7672;50.834;6.286;2023-02-01T11:48:31;15.30;99.90
15143;DHT22;7672;50.834;6.286;2023-02-01T11:55:17;15.00;99.90
15143;DHT22;7672;50.834;6.286;2023-02-01T11:58:05;14.80;99.90
15143;DHT22;7672;50.834;6.286;2023-02-01T12:04:29;14.40;99.90
15143;DHT22;7672;50.834;6.286;2023-02-01T12:07:23;14.20;99.90
15143;DHT22;7672;50.834;6.286;2023-02-01T12:19:23;13.30;99.90
15143;DHT22;7672;50.834;6.286;2023-02-01T12:37:06;12.30;99.90
15143;DHT22;7672;50.834;6.286;2023-02-01T12:40:33;12.20;99.90
15143;DHT22;7672;50.834;6.286;2023-02-01T12:43:12;12.00;99.90
15143;DHT22;7672;50.834;6.286;2023-02-01T12:48:49;11.80;99.90
15143;DHT22;7672;50.834;6.286;2023-02-01T12:51:29;11.80;99.90
15143;DHT22;7672;50.834;6.286;2023-02-01T12:54:54;11.70;99.90
15143;DHT22;7672;50.834;6.286;2023-02-01T12:57:42;11.60;99.90
15143;DHT22;7672;50.834;6.286;2023-02-01T13:06:13;11.50;99.90
15143;DHT22;7672;50.834;6.286;2023-02-01T13:11:39;11.40;99.90
15143;DHT22;7672;50.834;6.286;2023-02-01T13:14:36;11.40;99.90
15143;DHT22;7672;50.834;6.286;2023-02-01T13:17:29;11.30;99.90
15143;DHT22;7672;50.834;6.286;2023-02-01T13:22:59;11.20;99.90
15143;DHT22;7672;50.834;6.286;2023-02-01T13:25:41;11.10;99.90
15143;DHT22;7672;50.834;6.286;2023-02-01T13:40:25;10.90;99.90
15143;DHT22;7672;50.834;6.286;2023-02-01T13:43:00;10.90;99.90
15143;DHT22;7672;50.834;6.286;2023-02-01T13:45:35;10.80;99.90
15143;DHT22;7672;50.834;6.286;2023-02-01T13:48:22;10.80;99.90
15143;DHT22;7672;50.834;6.286;2023-02-01T13:50:55;10.80;99.90
15143;DHT22;7672;50.834;6.286;2023-02-01T13:53:29;10.80;99.90
15143;DHT22;7672;50.834;6.286;2023-02-01T13:56:08;10.70;99.90
15143;DHT22;7672;50.834;6.286;2023-02-01T13:58:43;10.70;99.90
15143;DHT22;7672;50.834;6.286;2023-02-01T14:03:55;10.70;99.90
15143;DHT22;7672;50.834;6.286;2023-02-01T14:09:19;10.60;99.90
15143;DHT22;7672;50.834;6.286;2023-02-01T14:15:26;10.60;99.90
15143;DHT22;7672;50.834;6.286;2023-02-01T14:17:55;10.60;99.90
15143;DHT22;7672;50.834;6.286;2023-02-01T14:20:40;10.60;99.90
15143;DHT22;7672;50.834;6.286;2023-02-01T14:23:19;10.60;99.90
15143;DHT22;7672;50.834;6.286;2023-02-01T14:25:59;10.60;99.90
15143;DHT22;7672;50.834;6.286;2023-02-01T14:28:30;10.60;99.90
15143;DHT22;7672;50.834;6.286;2023-02-01T14:30:58;10.60;99.90
15143;DHT22;7672;50.834;6.286;2023-02-01T14:33:27;10.60;99.90
15143;DHT22;7672;50.834;6.286;2023-02-01T14:36:03;10.60;99.90
15143;DHT22;7672;50.834;6.286;2023-02-01T14:38:35;10.60;99.90
15143;DHT22;7672;50.834;6.286;2023-02-01T14:41:32;10.60;99.90
15143;DHT22;7672;50.834;6.286;2023-02-01T14:52:34;10.70;99.90
15143;DHT22;7672;50.834;6.286;2023-02-01T14:55:20;10.70;99.90
15143;DHT22;7672;50.834;6.286;2023-02-01T14:57:54;10.70;99.90
15143;DHT22;7672;50.834;6.286;2023-02-01T15:00:25;10.70;99.90
15143;DHT22;7672;50.834;6.286;2023-02-01T15:05:59;10.80;99.90
15143;DHT22;7672;50.834;6.286;2023-02-01T15:08:37;10.80;99.90
15143;DHT22;7672;50.834;6.286;2023-02-01T15:11:11;10.80;99.90
15143;DHT22;7672;50.834;6.286;2023-02-01T15:13:48;10.80;99.90
15143;DHT22;7672;50.834;6.286;2023-02-01T15:16:20;10.80;99.90
15143;DHT22;7672;50.834;6.286;2023-02-01T15:18:49;10.90;99.90
15143;DHT22;7672;50.834;6.286;2023-02-01T15:21:21;10.90;99.90
15143;DHT22;7672;50.834;6.286;2023-02-01T15:24:13;10.90;99.90
15143;DHT22;7672;50.834;6.286;2023-02-01T15:26:45;10.90;99.90
15143;DHT22;7672;50.834;6.286;2023-02-01T15:29:13;10.90;99.90
15143;DHT22;7672;50.834;6.286;2023-02-01T15:31:46;10.80;99.90
15143;DHT22;7672;50.834;6.286;2023-02-01T15:34:15;10.90;99.90
15143;DHT22;7672;50.834;6.286;2023-02-01T15:36:44;10.80;99.90
15143;DHT22;7672;50.834;6.286;2023-02-01T15:39:28;10.80;99.90
15143;DHT22;7672;50.834;6.286;2023-02-01T15:42:08;10.80;99.90
15143;DHT22;7672;50.834;6.286;2023-02-01T15:44:43;10.80;99.90
15143;DHT22;7672;50.834;6.286;2023-02-01T15:47:23;10.70;99.90
15143;DHT22;7672;50.834;6.286;2023-02-01T15:49:54;10.70;99.90
15143;DHT22;7672;50.834;6.286;2023-02-01T15:52:32;10.60;99.90
15143;DHT22;7672;50.834;6.286;2023-02-01T15:55:05;10.60;99.90
15143;DHT22;7672;50.834;6.286;2023-02-01T15:57:53;10.50;99.90
15143;DHT22;7672;50.834;6.286;2023-02-01T16:03:02;10.50;99.90
15143;DHT22;7672;50.834;6.286;2023-02-01T16:05:40;10.40;99.90
15143;DHT22;7672;50.834;6.286;2023-02-01T16:08:17;10.40;99.90
15143;DHT22;7672;50.834;6.286;2023-02-01T16:10:51;10.30;99.90
15143;DHT22;7672;50.834;6.286;2023-02-01T16:13:20;10.20;99.90
15143;DHT22;7672;50.834;6.286;2023-02-01T16:15:47;10.20;99.90
15143;DHT22;7672;50.834;6.286;2023-02-01T16:18:15;10.10;99.90
15143;DHT22;7672;50.834;6.286;2023-02-01T16:20:45;10.00;99.90
15143;DHT22;7672;50.834;6.286;2023-02-01T16:23:13;9.90;99.90
15143;DHT22;7672;50.834;6.286;2023-02-01T16:25:41;9.90;99.90
15143;DHT22;7672;50.834;6.286;2023-02-01T16:28:08;9.80;99.90
15143;DHT22;7672;50.834;6.286;2023-02-01T16:30:35;9.80;99.90
15143;DHT22;7672;50.834;6.286;2023-02-01T16:33:03;9.70;99.90
15143;DHT22;7672;50.834;6.286;2023-02-01T16:35:36;9.60;99.90
15143;DHT22;7672;50.834;6.286;2023-02-01T16:38:05;9.60;99.90
15143;DHT22;7672;50.834;6.286;2023-02-01T16:40:40;9.60;99.90
15143;DHT22;7672;50.834;6.286;2023-02-01T16:43:27;9.50;99.90
15143;DHT22;7672;50.834;6.286;2023-02-01T16:45:55;9.50;99.90
15143;DHT22;7672;50.834;6.286;2023-02-01T16:48:30;9.40;99.90
15143;DHT22;7672;50.834;6.286;2023-02-01T16:51:03;9.40;99.90
15143;DHT22;7672;50.834;6.286;2023-02-01T16:53:35;9.40;99.90
15143;DHT22;7672;50.834;6.286;2023-02-01T16:56:24;9.30;99.90
15143;DHT22;7672;50.834;6.286;2023-02-01T16:58:56;9.30;99.90
15143;DHT22;7672;50.834;6.286;2023-02-01T17:01:24;9.30;99.90
15143;DHT22;7672;50.834;6.286;2023-02-01T17:03:51;9.30;99.90
15143;DHT22;7672;50.834;6.286;2023-02-01T17:06:21;9.20;99.90
15143;DHT22;7672;50.834;6.286;2023-02-01T17:08:52;9.20;99.90
15143;DHT22;7672;50.834;6.286;2023-02-01T17:11:21;9.20;99.90
15143;DHT22;7672;50.834;6.286;2023-02-01T17:13:48;9.20;99.90
15143;DHT22;7672;50.834;6.286;2023-02-01T17:18:59;9.10;99.90
15143;DHT22;7672;50.834;6.286;2023-02-01T17:21:41;9.10;99.90
15143;DHT22;7672;50.834;6.286;2023-02-01T17:24:21;9.10;99.90
15143;DHT22;7672;50.834;6.286;2023-02-01T17:26:52;9.10;99.90
15143;DHT22;7672;50.834;6.286;2023-02-01T17:29:19;9.10;99.90
15143;DHT22;7672;50.834;6.286;2023-02-01T17:31:50;9.10;99.90
15143;DHT22;7672;50.834;6.286;2023-02-01T17:34:18;9.10;99.90
15143;DHT22;7672;50.834;6.286;2023-02-01T17:36:46;9.10;99.90
15143;DHT22;7672;50.834;6.286;2023-02-01T17:39:15;9.10;99.90
15143;DHT22;7672;50.834;6.286;2023-02-01T17:42:01;9.10;99.90
15143;DHT22;7672;50.834;6.286;2023-02-01T17:44:30;9.00;99.90
15143;DHT22;7672;50.834;6.286;2023-02-01T17:46:57;9.00;99.90
15143;DHT22;7672;50.834;6.286;2023-02-01T17:49:25;9.00;99.90
15143;DHT22;7672;50.834;6.286;2023-02-01T17:51:55;9.00;99.90
15143;DHT22;7672;50.834;6.286;2023-02-01T17:54:22;9.00;99.90
15143;DHT22;7672;50.834;6.286;2023-02-01T17:56:51;9.00;99.90
15143;DHT22;7672;50.834;6.286;2023-02-01T17:59:18;9.00;99.90
15143;DHT22;7672;50.834;6.286;2023-02-01T18:01:44;9.00;99.90
15143;DHT22;7672;50.834;6.286;2023-02-01T18:04:12;9.00;99.90
15143;DHT22;7672;50.834;6.286;2023-02-01T18:06:42;9.00;99.90
15143;DHT22;7672;50.834;6.286;2023-02-01T18:09:09;8.90;99.90
15143;DHT22;7672;50.834;6.286;2023-02-01T18:11:36;9.00;99.90
15143;DHT22;7672;50.834;6.286;2023-02-01T18:14:02;9.00;99.90
15143;DHT22;7672;50.834;6.286;2023-02-01T18:16:31;9.00;99.90
15143;DHT22;7672;50.834;6.286;2023-02-01T18:18:59;9.00;99.90
15143;DHT22;7672;50.834;6.286;2023-02-01T18:21:37;9.00;99.90
15143;DHT22;7672;50.834;6.286;2023-02-01T18:24:12;9.00;99.90
15143;DHT22;7672;50.834;6.286;2023-02-01T18:26:41;9.00;99.90
15143;DHT22;7672;50.834;6.286;2023-02-01T18:29:08;9.00;99.90
15143;DHT22;7672;50.834;6.286;2023-02-01T18:31:40;9.00;99.90
15143;DHT22;7672;50.834;6.286;2023-02-01T18:34:11;9.00;99.90
15143;DHT22;7672;50.834;6.286;2023-02-01T18:36:42;9.00;99.90
15143;DHT22;7672;50.834;6.286;2023-02-01T18:39:09;9.00;99.90
15143;DHT22;7672;50.834;6.286;2023-02-01T18:41:37;9.00;99.90
15143;DHT22;7672;50.834;6.286;2023-02-01T18:44:03;9.00;99.90
15143;DHT22;7672;50.834;6.286;2023-02-01T18:46:30;9.00;99.90
15143;DHT22;7672;50.834;6.286;2023-02-01T18:48:57;9.00;99.90
15143;DHT22;7672;50.834;6.286;2023-02-01T18:51:24;9.00;99.90
15143;DHT22;7672;50.834;6.286;2023-02-01T18:53:51;9.00;99.90